createdAt,value
2017-07-30T00:00:21.019Z,0
2017-07-30T00:01:01.476Z,0
2017-07-30T00:01:41.930Z,0
2017-07-30T00:02:22.378Z,0
2017-07-30T00:03:02.833Z,0
2017-07-30T00:03:43.286Z,0
2017-07-30T00:04:23.758Z,0
2017-07-30T00:05:04.201Z,0
2017-07-30T00:05:44.658Z,0
2017-07-30T00:06:25.101Z,0
2017-07-30T00:07:05.556Z,0
2017-07-30T00:07:46.012Z,0
2017-07-30T00:08:26.474Z,0
2017-07-30T00:09:06.919Z,0
2017-07-30T00:09:47.373Z,0
2017-07-30T00:10:27.837Z,0
2017-07-30T00:11:08.278Z,0
2017-07-30T00:11:48.742Z,0
2017-07-30T00:12:29.186Z,0
2017-07-30T00:13:09.641Z,0
2017-07-30T00:13:50.083Z,0
2017-07-30T00:14:30.577Z,0
2017-07-30T00:15:11.032Z,0
2017-07-30T00:15:51.484Z,0
2017-07-30T00:16:31.956Z,0
2017-07-30T00:17:12.422Z,0
2017-07-30T00:17:52.838Z,0
2017-07-30T00:20:05.622Z,0
2017-07-30T00:20:46.072Z,0
2017-07-30T00:21:26.523Z,0
2017-07-30T00:22:06.966Z,0
2017-07-30T00:22:47.418Z,0
2017-07-30T00:23:27.866Z,0
2017-07-30T00:24:08.323Z,0
2017-07-30T00:24:48.803Z,0
2017-07-30T00:25:29.235Z,0
2017-07-30T00:26:09.679Z,0
2017-07-30T00:26:50.135Z,0
2017-07-30T00:27:30.587Z,0
2017-07-30T00:28:11.046Z,0
2017-07-30T00:28:51.503Z,0
2017-07-30T00:29:31.948Z,0
2017-07-30T00:30:12.400Z,0
2017-07-30T00:30:52.855Z,0
2017-07-30T00:33:21.750Z,0
2017-07-30T00:34:02.202Z,0
2017-07-30T00:34:42.653Z,0
2017-07-30T00:35:23.101Z,0
2017-07-30T00:36:03.635Z,0
2017-07-30T00:36:44.047Z,0
2017-07-30T00:37:24.489Z,0
2017-07-30T00:38:04.947Z,0
2017-07-30T00:38:45.403Z,0
2017-07-30T00:39:25.863Z,0
2017-07-30T00:40:06.307Z,0
2017-07-30T00:40:46.770Z,0
2017-07-30T00:41:27.236Z,0
2017-07-30T00:42:07.686Z,0
2017-07-30T00:42:48.143Z,0
2017-07-30T00:43:28.596Z,0
2017-07-30T00:44:09.039Z,0
2017-07-30T00:44:49.493Z,0
2017-07-30T00:45:29.941Z,0
2017-07-30T00:46:10.384Z,0
2017-07-30T00:46:50.838Z,0
2017-07-30T00:47:31.287Z,0
2017-07-30T00:48:11.733Z,0
2017-07-30T00:48:52.194Z,0
2017-07-30T00:49:32.650Z,0
2017-07-30T00:52:10.782Z,0
2017-07-30T00:52:51.251Z,0
2017-07-30T00:53:31.656Z,0
2017-07-30T00:56:09.810Z,0
2017-07-30T00:56:50.273Z,0
2017-07-30T00:57:30.721Z,0
2017-07-30T00:58:11.177Z,0
2017-07-30T00:58:51.624Z,0
2017-07-30T00:59:32.066Z,0
2017-07-30T01:00:12.521Z,0
2017-07-30T01:00:52.968Z,0
2017-07-30T01:01:33.430Z,0
2017-07-30T01:02:13.896Z,0
2017-07-30T01:02:54.354Z,0
2017-07-30T01:03:34.797Z,0
2017-07-30T01:04:15.268Z,0
2017-07-30T01:04:55.691Z,0
2017-07-30T01:05:36.150Z,0
2017-07-30T01:06:16.603Z,0
2017-07-30T01:06:57.051Z,0
2017-07-30T01:07:37.507Z,0
2017-07-30T01:08:17.947Z,0
2017-07-30T01:08:58.418Z,0
2017-07-30T01:09:38.870Z,0
2017-07-30T01:10:19.323Z,0
2017-07-30T01:10:59.779Z,0
2017-07-30T01:11:40.224Z,0
2017-07-30T01:12:20.683Z,0
2017-07-30T01:13:01.133Z,0
2017-07-30T01:13:41.584Z,0
2017-07-30T01:14:22.034Z,0
2017-07-30T01:15:02.510Z,0
2017-07-30T01:15:42.980Z,0
2017-07-30T01:16:23.424Z,0
2017-07-30T01:17:03.875Z,0
2017-07-30T01:17:44.319Z,0
2017-07-30T01:18:24.748Z,0
2017-07-30T01:19:05.214Z,0
2017-07-30T01:19:45.646Z,0
2017-07-30T01:20:26.083Z,0
2017-07-30T01:21:06.540Z,0
2017-07-30T01:21:46.996Z,0
2017-07-30T01:22:27.446Z,0
2017-07-30T01:23:07.906Z,0
2017-07-30T01:23:48.360Z,0
2017-07-30T01:24:28.802Z,0
2017-07-30T01:25:09.254Z,0
2017-07-30T01:25:49.712Z,0
2017-07-30T01:26:30.167Z,0
2017-07-30T01:27:10.621Z,0
2017-07-30T01:27:51.074Z,0
2017-07-30T01:28:31.531Z,0
2017-07-30T01:29:12.001Z,0
2017-07-30T01:29:52.457Z,0
2017-07-30T01:30:32.904Z,0
2017-07-30T01:31:13.373Z,0
2017-07-30T01:31:53.813Z,0
2017-07-30T01:32:34.255Z,0
2017-07-30T01:33:14.721Z,0
2017-07-30T01:33:55.179Z,0
2017-07-30T01:34:35.621Z,0
2017-07-30T01:35:16.079Z,0
2017-07-30T01:35:56.526Z,0
2017-07-30T01:36:36.978Z,0
2017-07-30T01:37:17.434Z,0
2017-07-30T01:37:57.896Z,0
2017-07-30T01:38:38.340Z,0
2017-07-30T01:39:18.797Z,0
2017-07-30T01:39:59.250Z,0
2017-07-30T01:40:39.701Z,0
2017-07-30T01:41:20.156Z,0
2017-07-30T01:42:00.615Z,0
2017-07-30T01:42:41.068Z,0
2017-07-30T01:43:21.521Z,0
2017-07-30T01:44:01.971Z,0
2017-07-30T01:44:42.426Z,0
2017-07-30T01:45:22.883Z,0
2017-07-30T01:46:03.332Z,0
2017-07-30T01:46:43.776Z,0
2017-07-30T01:47:24.236Z,0
2017-07-30T01:48:04.690Z,0
2017-07-30T01:48:45.176Z,0
2017-07-30T01:49:25.602Z,0
2017-07-30T01:50:06.075Z,0
2017-07-30T01:50:46.511Z,0
2017-07-30T01:51:26.959Z,0
2017-07-30T01:52:07.409Z,0
2017-07-30T01:52:47.865Z,0
2017-07-30T01:53:28.307Z,0
2017-07-30T01:54:08.772Z,0
2017-07-30T01:54:49.225Z,0
2017-07-30T01:55:29.669Z,0
2017-07-30T01:56:10.128Z,0
2017-07-30T01:56:50.573Z,0
2017-07-30T01:57:31.027Z,0
2017-07-30T01:58:11.474Z,0
2017-07-30T01:58:51.920Z,0
2017-07-30T01:59:32.390Z,0
2017-07-30T02:00:12.845Z,0
2017-07-30T02:00:53.280Z,0
2017-07-30T02:01:33.731Z,0
2017-07-30T02:02:14.180Z,0
2017-07-30T02:04:32.443Z,0
2017-07-30T02:05:12.890Z,0
2017-07-30T02:05:53.351Z,0
2017-07-30T02:06:33.780Z,0
2017-07-30T02:07:14.243Z,0
2017-07-30T02:07:54.681Z,0
2017-07-30T02:08:35.126Z,0
2017-07-30T02:09:15.570Z,0
2017-07-30T02:09:56.049Z,0
2017-07-30T02:10:36.519Z,0
2017-07-30T02:11:16.957Z,0
2017-07-30T02:11:57.411Z,0
2017-07-30T02:12:37.865Z,0
2017-07-30T02:15:05.808Z,0
2017-07-30T02:15:46.267Z,0
2017-07-30T02:16:26.710Z,0
2017-07-30T02:17:07.164Z,0
2017-07-30T02:17:47.599Z,0
2017-07-30T02:18:28.036Z,0
2017-07-30T02:19:08.483Z,0
2017-07-30T02:19:48.937Z,0
2017-07-30T02:20:29.392Z,0
2017-07-30T02:21:09.841Z,0
2017-07-30T02:21:50.307Z,0
2017-07-30T02:22:30.738Z,0
2017-07-30T02:23:11.185Z,0
2017-07-30T02:23:51.641Z,0
2017-07-30T02:24:32.076Z,0
2017-07-30T02:25:12.532Z,0
2017-07-30T02:25:52.984Z,0
2017-07-30T02:26:33.443Z,0
2017-07-30T02:29:06.641Z,0
2017-07-30T02:29:47.103Z,0
2017-07-30T02:32:20.316Z,0
2017-07-30T02:33:00.740Z,0
2017-07-30T02:33:41.190Z,0
2017-07-30T02:34:21.641Z,0
2017-07-30T02:35:02.080Z,0
2017-07-30T02:35:42.526Z,0
2017-07-30T02:36:22.971Z,0
2017-07-30T02:37:03.429Z,0
2017-07-30T02:37:43.870Z,0
2017-07-30T02:38:24.317Z,0
2017-07-30T02:39:04.781Z,0
2017-07-30T02:39:45.226Z,0
2017-07-30T02:40:25.672Z,0
2017-07-30T02:41:06.140Z,0
2017-07-30T02:41:46.592Z,0
2017-07-30T02:42:27.041Z,0
2017-07-30T02:43:07.517Z,0
2017-07-30T02:43:47.957Z,0
2017-07-30T02:44:28.407Z,0
2017-07-30T02:45:08.850Z,0
2017-07-30T02:45:49.298Z,0
2017-07-30T02:46:29.719Z,0
2017-07-30T02:48:42.504Z,0
2017-07-30T02:49:22.979Z,0
2017-07-30T02:50:03.420Z,0
2017-07-30T02:50:43.873Z,0
2017-07-30T02:51:24.330Z,0
2017-07-30T02:52:04.780Z,0
2017-07-30T02:52:45.213Z,0
2017-07-30T02:53:25.653Z,0
2017-07-30T02:54:06.114Z,0
2017-07-30T02:54:46.528Z,0
2017-07-30T02:55:26.962Z,0
2017-07-30T02:56:07.396Z,0
2017-07-30T02:56:47.841Z,0
2017-07-30T02:57:28.272Z,0
2017-07-30T02:58:08.751Z,0
2017-07-30T02:58:49.177Z,0
2017-07-30T02:59:29.632Z,0
2017-07-30T03:00:10.080Z,0
2017-07-30T03:00:50.529Z,0
2017-07-30T03:01:30.981Z,0
2017-07-30T03:02:11.439Z,0
2017-07-30T03:02:51.884Z,0
2017-07-30T03:03:32.340Z,0
2017-07-30T03:04:12.793Z,0
2017-07-30T03:04:53.250Z,0
2017-07-30T03:05:33.703Z,0
2017-07-30T03:06:14.157Z,0
2017-07-30T03:08:33.108Z,0
2017-07-30T03:09:13.577Z,0
2017-07-30T03:09:54.016Z,0
2017-07-30T03:10:34.509Z,0
2017-07-30T03:11:14.950Z,0
2017-07-30T03:11:55.389Z,0
2017-07-30T03:12:35.864Z,0
2017-07-30T03:13:16.291Z,0
2017-07-30T03:13:56.747Z,0
2017-07-30T03:14:37.186Z,0
2017-07-30T03:15:18.730Z,0
2017-07-30T03:15:59.181Z,0
2017-07-30T03:16:39.630Z,0
2017-07-30T03:17:20.081Z,0
2017-07-30T03:18:00.518Z,0
2017-07-30T03:18:40.965Z,0
2017-07-30T03:19:22.135Z,0
2017-07-30T03:20:02.604Z,0
2017-07-30T03:20:43.027Z,0
2017-07-30T03:21:23.474Z,0
2017-07-30T03:22:03.927Z,0
2017-07-30T03:22:44.383Z,0
2017-07-30T03:23:25.922Z,0
2017-07-30T03:24:06.369Z,0
2017-07-30T03:24:46.816Z,0
2017-07-30T03:25:27.271Z,0
2017-07-30T03:26:07.710Z,0
2017-07-30T03:26:48.149Z,0
2017-07-30T03:27:28.627Z,0
2017-07-30T03:28:09.077Z,0
2017-07-30T03:28:49.543Z,0
2017-07-30T03:29:29.985Z,0
2017-07-30T03:30:10.436Z,0
2017-07-30T03:30:50.875Z,0
2017-07-30T03:31:31.301Z,0
2017-07-30T03:32:11.749Z,0
2017-07-30T03:32:52.206Z,0
2017-07-30T03:33:32.663Z,0
2017-07-30T03:34:13.123Z,0
2017-07-30T03:34:53.584Z,0
2017-07-30T03:35:34.036Z,0
2017-07-30T03:36:14.485Z,0
2017-07-30T03:36:54.940Z,0
2017-07-30T03:37:35.398Z,0
2017-07-30T03:38:15.872Z,0
2017-07-30T03:38:56.313Z,0
2017-07-30T03:39:36.751Z,0
2017-07-30T03:40:17.200Z,0
2017-07-30T03:40:57.656Z,0
2017-07-30T03:41:38.106Z,0
2017-07-30T03:42:18.542Z,0
2017-07-30T03:42:59.000Z,0
2017-07-30T03:43:39.471Z,0
2017-07-30T03:44:19.935Z,0
2017-07-30T03:45:00.386Z,0
2017-07-30T03:45:40.832Z,0
2017-07-30T03:46:21.275Z,0
2017-07-30T03:47:01.979Z,0
2017-07-30T03:47:42.434Z,0
2017-07-30T03:48:22.896Z,0
2017-07-30T03:49:03.340Z,0
2017-07-30T03:51:36.279Z,0
2017-07-30T03:52:16.723Z,0
2017-07-30T03:52:57.186Z,0
2017-07-30T03:53:37.642Z,0
2017-07-30T03:54:18.091Z,0
2017-07-30T03:54:58.569Z,0
2017-07-30T03:55:39.015Z,0
2017-07-30T03:56:19.540Z,0
2017-07-30T03:57:00.009Z,0
2017-07-30T03:57:40.457Z,0
2017-07-30T03:58:20.911Z,0
2017-07-30T03:59:01.343Z,0
2017-07-30T03:59:41.806Z,0
2017-07-30T04:00:22.257Z,0
2017-07-30T04:01:02.704Z,0
2017-07-30T04:01:43.154Z,0
2017-07-30T04:02:23.609Z,0
2017-07-30T04:03:04.064Z,0
2017-07-30T04:03:44.526Z,0
2017-07-30T04:04:24.979Z,0
2017-07-30T04:05:05.433Z,0
2017-07-30T04:05:45.876Z,0
2017-07-30T04:06:26.322Z,0
2017-07-30T04:07:06.751Z,0
2017-07-30T04:07:47.195Z,0
2017-07-30T04:08:27.649Z,0
2017-07-30T04:09:08.094Z,0
2017-07-30T04:09:48.541Z,0
2017-07-30T04:10:28.976Z,0
2017-07-30T04:11:09.437Z,0
2017-07-30T04:11:49.894Z,0
2017-07-30T04:12:30.353Z,0
2017-07-30T04:13:10.804Z,0
2017-07-30T04:13:51.254Z,0
2017-07-30T04:14:31.692Z,0
2017-07-30T04:15:12.143Z,0
2017-07-30T04:15:52.597Z,0
2017-07-30T04:16:33.049Z,0
2017-07-30T04:17:13.512Z,0
2017-07-30T04:17:53.958Z,0
2017-07-30T04:18:34.405Z,0
2017-07-30T04:19:14.890Z,0
2017-07-30T04:19:55.318Z,0
2017-07-30T04:20:35.771Z,0
2017-07-30T04:21:16.227Z,0
2017-07-30T04:21:56.687Z,0
2017-07-30T04:22:37.146Z,0
2017-07-30T04:23:17.604Z,0
2017-07-30T04:23:58.060Z,0
2017-07-30T04:24:38.514Z,0
2017-07-30T04:25:18.965Z,0
2017-07-30T04:25:59.412Z,0
2017-07-30T04:26:39.863Z,0
2017-07-30T04:27:20.314Z,0
2017-07-30T04:28:00.753Z,0
2017-07-30T04:28:41.207Z,0
2017-07-30T04:29:21.659Z,0
2017-07-30T04:30:02.110Z,0
2017-07-30T04:30:42.562Z,0
2017-07-30T04:31:23.005Z,0
2017-07-30T04:32:03.490Z,0
2017-07-30T04:32:43.973Z,0
2017-07-30T04:33:24.359Z,0
2017-07-30T04:34:04.777Z,0
2017-07-30T04:34:45.204Z,0
2017-07-30T04:35:25.670Z,0
2017-07-30T04:36:06.127Z,0
2017-07-30T04:36:46.580Z,0
2017-07-30T04:37:27.028Z,0
2017-07-30T04:38:07.481Z,0
2017-07-30T04:38:47.921Z,0
2017-07-30T04:39:28.370Z,0
2017-07-30T04:40:08.826Z,0
2017-07-30T04:40:49.265Z,0
2017-07-30T04:41:29.695Z,0
2017-07-30T04:42:10.143Z,0
2017-07-30T04:44:22.925Z,0
2017-07-30T04:45:03.387Z,0
2017-07-30T04:45:43.820Z,0
2017-07-30T04:46:24.287Z,0
2017-07-30T04:47:04.705Z,0
2017-07-30T04:47:45.157Z,0
2017-07-30T04:48:25.596Z,0
2017-07-30T04:49:06.052Z,0
2017-07-30T04:49:46.499Z,0
2017-07-30T04:50:26.948Z,0
2017-07-30T04:51:07.372Z,0
2017-07-30T04:51:47.821Z,0
2017-07-30T04:52:28.257Z,0
2017-07-30T04:53:08.686Z,0
2017-07-30T04:53:49.158Z,0
2017-07-30T04:54:29.604Z,0
2017-07-30T04:55:10.031Z,0
2017-07-30T04:55:50.491Z,0
2017-07-30T04:56:30.935Z,0
2017-07-30T04:57:11.389Z,0
2017-07-30T04:57:51.857Z,0
2017-07-30T04:58:32.315Z,0
2017-07-30T04:59:12.757Z,0
2017-07-30T04:59:53.211Z,0
2017-07-30T05:00:33.686Z,0
2017-07-30T05:01:14.106Z,0
2017-07-30T05:01:54.548Z,0
2017-07-30T05:02:34.991Z,0
2017-07-30T05:03:15.459Z,0
2017-07-30T05:03:55.915Z,0
2017-07-30T05:04:36.364Z,0
2017-07-30T05:05:16.815Z,0
2017-07-30T05:05:57.264Z,0
2017-07-30T05:06:37.704Z,0
2017-07-30T05:07:18.160Z,0
2017-07-30T05:07:58.644Z,0
2017-07-30T05:08:39.094Z,0
2017-07-30T05:09:19.561Z,0
2017-07-30T05:09:59.996Z,0
2017-07-30T05:10:40.436Z,0
2017-07-30T05:11:20.896Z,0
2017-07-30T05:12:01.357Z,0
2017-07-30T05:12:41.782Z,0
2017-07-30T05:13:22.246Z,0
2017-07-30T05:14:02.706Z,0
2017-07-30T05:14:43.156Z,0
2017-07-30T05:15:23.606Z,0
2017-07-30T05:16:04.076Z,0
2017-07-30T05:16:44.530Z,0
2017-07-30T05:17:24.975Z,0
2017-07-30T05:18:05.416Z,0
2017-07-30T05:18:45.858Z,0
2017-07-30T05:19:26.309Z,0
2017-07-30T05:20:06.759Z,0
2017-07-30T05:20:47.231Z,0
2017-07-30T05:21:27.638Z,0
2017-07-30T05:22:08.072Z,0
2017-07-30T05:22:48.538Z,0
2017-07-30T05:23:28.985Z,0
2017-07-30T05:24:09.439Z,0
2017-07-30T05:24:49.879Z,0
2017-07-30T05:25:30.316Z,0
2017-07-30T05:26:10.767Z,0
2017-07-30T05:26:51.219Z,0
2017-07-30T05:27:31.677Z,0
2017-07-30T05:28:12.133Z,0
2017-07-30T05:28:52.587Z,0
2017-07-30T05:29:33.057Z,0
2017-07-30T05:30:13.514Z,0
2017-07-30T05:30:53.950Z,0
2017-07-30T05:31:34.397Z,0
2017-07-30T05:32:14.898Z,0
2017-07-30T05:32:55.373Z,0
2017-07-30T05:33:35.810Z,0
2017-07-30T05:34:16.268Z,0
2017-07-30T05:34:56.721Z,0
2017-07-30T05:35:37.174Z,0
2017-07-30T05:36:17.644Z,0
2017-07-30T05:36:58.070Z,0
2017-07-30T05:37:38.542Z,0
2017-07-30T05:38:18.958Z,0
2017-07-30T05:38:59.404Z,0
2017-07-30T05:39:39.901Z,0
2017-07-30T05:40:20.355Z,0
2017-07-30T05:41:00.823Z,0
2017-07-30T05:41:41.279Z,0
2017-07-30T05:42:21.752Z,0
2017-07-30T05:43:02.207Z,0
2017-07-30T05:43:42.637Z,0
2017-07-30T05:44:23.088Z,0
2017-07-30T05:45:03.535Z,0
2017-07-30T05:45:43.979Z,0
2017-07-30T05:46:24.459Z,0
2017-07-30T05:47:04.909Z,0
2017-07-30T05:47:45.345Z,0
2017-07-30T05:48:25.808Z,0
2017-07-30T05:49:06.263Z,0
2017-07-30T05:49:46.712Z,0
2017-07-30T05:50:27.158Z,0
2017-07-30T05:51:07.605Z,0
2017-07-30T05:51:48.073Z,0
2017-07-30T05:52:28.546Z,0
2017-07-30T05:53:08.974Z,0
2017-07-30T05:53:49.433Z,0
2017-07-30T05:54:29.881Z,0
2017-07-30T05:55:10.337Z,0
2017-07-30T05:55:50.790Z,0
2017-07-30T05:56:31.242Z,0
2017-07-30T05:57:11.692Z,0
2017-07-30T05:57:52.158Z,0
2017-07-30T05:58:32.606Z,0
2017-07-30T05:59:13.054Z,0
2017-07-30T05:59:53.506Z,0
2017-07-30T06:00:33.957Z,0
2017-07-30T06:01:14.396Z,0
2017-07-30T06:01:54.851Z,0
2017-07-30T06:02:35.295Z,0
2017-07-30T06:03:15.736Z,0
2017-07-30T06:03:56.195Z,0
2017-07-30T06:04:36.642Z,0
2017-07-30T06:05:17.094Z,0
2017-07-30T06:05:57.577Z,0
2017-07-30T06:06:37.992Z,0
2017-07-30T06:07:18.447Z,0
2017-07-30T06:07:58.892Z,0
2017-07-30T06:08:39.326Z,0
2017-07-30T06:09:19.778Z,0
2017-07-30T06:10:00.205Z,0
2017-07-30T06:10:40.647Z,0
2017-07-30T06:11:21.085Z,0
2017-07-30T06:12:01.537Z,0
2017-07-30T06:12:42.008Z,0
2017-07-30T06:13:22.467Z,0
2017-07-30T06:14:02.916Z,0
2017-07-30T06:14:43.372Z,0
2017-07-30T06:15:23.809Z,0
2017-07-30T06:16:04.249Z,0
2017-07-30T06:16:44.693Z,0
2017-07-30T06:17:25.134Z,0
2017-07-30T06:18:05.579Z,0
2017-07-30T06:18:46.032Z,0
2017-07-30T06:19:26.469Z,0
2017-07-30T06:20:06.926Z,0
2017-07-30T06:20:47.377Z,0
2017-07-30T06:21:27.825Z,0
2017-07-30T06:22:08.292Z,0
2017-07-30T06:22:48.735Z,0
2017-07-30T06:23:29.191Z,0
2017-07-30T06:24:09.643Z,0
2017-07-30T06:24:50.101Z,0
2017-07-30T06:25:30.544Z,0
2017-07-30T06:26:10.999Z,0
2017-07-30T06:26:51.450Z,0
2017-07-30T06:27:31.903Z,0
2017-07-30T06:28:12.362Z,0
2017-07-30T06:28:52.820Z,0
2017-07-30T06:29:33.270Z,0
2017-07-30T06:30:13.751Z,0
2017-07-30T06:30:54.204Z,0
2017-07-30T06:31:34.655Z,0
2017-07-30T06:32:15.099Z,0
2017-07-30T06:32:55.553Z,0
2017-07-30T06:33:35.998Z,0
2017-07-30T06:34:16.444Z,0
2017-07-30T06:34:56.895Z,0
2017-07-30T06:35:37.342Z,0
2017-07-30T06:36:17.807Z,0
2017-07-30T06:36:58.262Z,0
2017-07-30T06:37:38.721Z,0
2017-07-30T06:38:19.159Z,0
2017-07-30T06:38:59.620Z,0
2017-07-30T06:39:40.038Z,0
2017-07-30T06:40:20.483Z,0
2017-07-30T06:41:00.913Z,0
2017-07-30T06:41:41.358Z,0
2017-07-30T06:42:21.810Z,0
2017-07-30T06:43:02.268Z,0
2017-07-30T06:43:42.734Z,0
2017-07-30T06:44:23.208Z,0
2017-07-30T06:45:03.627Z,0
2017-07-30T06:45:44.078Z,0
2017-07-30T06:46:24.526Z,0
2017-07-30T06:47:04.963Z,0
2017-07-30T06:47:45.420Z,0
2017-07-30T06:48:25.876Z,0
2017-07-30T06:49:06.334Z,0
2017-07-30T06:49:46.784Z,0
2017-07-30T06:50:27.249Z,0
2017-07-30T06:51:07.694Z,0
2017-07-30T06:51:48.144Z,0
2017-07-30T06:52:28.587Z,0
2017-07-30T06:53:09.019Z,0
2017-07-30T06:53:49.471Z,0
2017-07-30T06:54:29.900Z,0
2017-07-30T06:55:10.368Z,0
2017-07-30T06:55:50.801Z,0
2017-07-30T06:56:31.250Z,0
2017-07-30T06:57:11.705Z,0
2017-07-30T06:57:52.155Z,0
2017-07-30T06:58:32.613Z,0
2017-07-30T07:01:10.742Z,0
2017-07-30T07:01:51.189Z,0
2017-07-30T07:02:31.623Z,0
2017-07-30T07:03:12.075Z,0
2017-07-30T07:03:52.529Z,0
2017-07-30T07:06:20.482Z,0
2017-07-30T07:07:00.932Z,0
2017-07-30T07:07:41.394Z,0
2017-07-30T07:08:21.826Z,0
2017-07-30T07:09:02.267Z,0
2017-07-30T07:09:42.699Z,0
2017-07-30T07:10:23.147Z,0
2017-07-30T07:12:36.119Z,0
2017-07-30T07:13:16.563Z,0
2017-07-30T07:13:57.025Z,0
2017-07-30T07:14:37.478Z,0
2017-07-30T07:15:17.945Z,0
2017-07-30T07:15:58.377Z,0
2017-07-30T07:16:38.836Z,0
2017-07-30T07:17:19.282Z,0
2017-07-30T07:17:59.740Z,0
2017-07-30T07:18:40.175Z,0
2017-07-30T07:19:20.622Z,0
2017-07-30T07:20:01.093Z,0
2017-07-30T07:20:41.536Z,0
2017-07-30T07:21:21.972Z,0
2017-07-30T07:22:02.422Z,0
2017-07-30T07:22:42.870Z,0
2017-07-30T07:23:23.315Z,0
2017-07-30T07:24:03.807Z,0
2017-07-30T07:24:44.253Z,0
2017-07-30T07:25:24.708Z,0
2017-07-30T07:26:05.151Z,0
2017-07-30T07:26:45.601Z,0
2017-07-30T07:27:26.046Z,0
2017-07-30T07:28:06.517Z,0
2017-07-30T07:28:47.047Z,0
2017-07-30T07:29:27.466Z,0
2017-07-30T07:30:07.901Z,0
2017-07-30T07:30:48.375Z,0
2017-07-30T07:31:28.813Z,0
2017-07-30T07:32:09.375Z,0
2017-07-30T07:32:49.796Z,0
2017-07-30T07:33:30.241Z,0
2017-07-30T07:34:10.695Z,0
2017-07-30T07:36:48.815Z,0
2017-07-30T07:37:29.249Z,0
2017-07-30T07:38:09.697Z,0
2017-07-30T07:38:50.174Z,0
2017-07-30T07:39:30.609Z,0
2017-07-30T07:40:11.069Z,0
2017-07-30T07:40:51.517Z,0
2017-07-30T07:41:31.966Z,0
2017-07-30T07:42:12.425Z,0
2017-07-30T07:42:52.855Z,0
2017-07-30T07:43:33.320Z,0
2017-07-30T07:44:13.777Z,0
2017-07-30T07:44:54.228Z,0
2017-07-30T07:45:34.668Z,0
2017-07-30T07:46:15.104Z,0
2017-07-30T07:46:55.561Z,0
2017-07-30T07:47:36.021Z,0
2017-07-30T07:48:16.470Z,0
2017-07-30T07:48:56.920Z,0
2017-07-30T07:49:37.377Z,0
2017-07-30T07:50:17.833Z,0
2017-07-30T07:50:58.290Z,0
2017-07-30T07:51:38.747Z,0
2017-07-30T07:52:19.188Z,0
2017-07-30T07:52:59.626Z,0
2017-07-30T07:53:40.084Z,0
2017-07-30T07:54:20.532Z,0
2017-07-30T07:55:00.990Z,0
2017-07-30T07:55:41.429Z,0
2017-07-30T07:56:21.895Z,0
2017-07-30T07:57:02.343Z,0
2017-07-30T07:57:42.801Z,0
2017-07-30T07:58:23.235Z,0
2017-07-30T07:59:03.679Z,0
2017-07-30T07:59:44.136Z,0
2017-07-30T08:00:24.582Z,0
2017-07-30T08:01:05.042Z,0
2017-07-30T08:01:45.491Z,0
2017-07-30T08:02:25.931Z,0
2017-07-30T08:03:06.369Z,0
2017-07-30T08:03:46.817Z,0
2017-07-30T08:04:27.283Z,0
2017-07-30T08:05:07.734Z,0
2017-07-30T08:05:48.193Z,0
2017-07-30T08:06:28.651Z,0
2017-07-30T08:07:09.102Z,0
2017-07-30T08:07:49.578Z,0
2017-07-30T08:08:30.017Z,0
2017-07-30T08:09:10.474Z,0
2017-07-30T08:09:50.925Z,0
2017-07-30T08:10:31.365Z,0
2017-07-30T08:11:11.806Z,0
2017-07-30T08:11:52.272Z,0
2017-07-30T08:14:25.352Z,0
2017-07-30T08:15:05.805Z,0
2017-07-30T08:15:46.245Z,0
2017-07-30T08:16:26.704Z,0
2017-07-30T08:17:07.167Z,0
2017-07-30T08:17:47.602Z,0
2017-07-30T08:18:28.056Z,0
2017-07-30T08:19:08.510Z,0
2017-07-30T08:19:48.952Z,0
2017-07-30T08:20:29.393Z,0
2017-07-30T08:21:09.849Z,0
2017-07-30T08:21:50.313Z,0
2017-07-30T08:22:30.765Z,0
2017-07-30T08:23:11.246Z,0
2017-07-30T08:23:51.648Z,0
2017-07-30T08:24:32.086Z,0
2017-07-30T08:25:12.514Z,0
2017-07-30T08:25:52.963Z,0
2017-07-30T08:26:33.414Z,0
2017-07-30T08:27:13.859Z,0
2017-07-30T08:27:54.312Z,0
2017-07-30T08:28:34.743Z,0
2017-07-30T08:29:15.196Z,0
2017-07-30T08:29:55.650Z,0
2017-07-30T08:30:36.100Z,0
2017-07-30T08:31:16.550Z,0
2017-07-30T08:31:56.997Z,0
2017-07-30T08:32:37.454Z,0
2017-07-30T08:33:17.998Z,0
2017-07-30T08:33:58.459Z,0
2017-07-30T08:34:38.906Z,0
2017-07-30T08:35:19.360Z,0
2017-07-30T08:35:59.821Z,0
2017-07-30T08:36:40.268Z,0
2017-07-30T08:37:20.718Z,0
2017-07-30T08:38:01.174Z,0
2017-07-30T08:38:41.622Z,0
2017-07-30T08:39:22.069Z,0
2017-07-30T08:40:02.528Z,0
2017-07-30T08:40:42.988Z,0
2017-07-30T08:41:23.452Z,0
2017-07-30T08:42:03.894Z,0
2017-07-30T08:42:44.367Z,0
2017-07-30T08:43:24.837Z,0
2017-07-30T08:44:05.291Z,0
2017-07-30T08:44:45.731Z,0
2017-07-30T08:46:58.544Z,0
2017-07-30T08:47:38.992Z,0
2017-07-30T08:48:19.465Z,0
2017-07-30T08:48:59.914Z,0
2017-07-30T08:49:40.379Z,0
2017-07-30T08:50:20.823Z,0
2017-07-30T08:51:01.250Z,0
2017-07-30T08:51:41.723Z,0
2017-07-30T08:52:22.189Z,0
2017-07-30T08:53:02.627Z,0
2017-07-30T08:53:43.075Z,0
2017-07-30T08:54:23.535Z,40
2017-07-30T08:55:03.984Z,95
2017-07-30T08:55:44.432Z,95
2017-07-30T08:56:24.885Z,95
2017-07-30T08:57:05.354Z,95
2017-07-30T08:57:45.805Z,100
2017-07-30T08:58:26.266Z,100
2017-07-30T08:59:06.731Z,100
2017-07-30T08:59:47.178Z,100
2017-07-30T09:00:27.626Z,100
2017-07-30T09:01:08.075Z,100
2017-07-30T09:03:41.073Z,95
2017-07-30T09:04:21.524Z,100
2017-07-30T09:05:01.991Z,105
2017-07-30T09:05:42.449Z,100
2017-07-30T09:06:22.899Z,100
2017-07-30T09:07:03.357Z,105
2017-07-30T09:07:43.817Z,105
2017-07-30T09:08:24.273Z,100
2017-07-30T09:09:04.730Z,105
2017-07-30T09:09:45.205Z,105
2017-07-30T09:10:25.641Z,105
2017-07-30T09:11:06.091Z,35
2017-07-30T09:11:46.547Z,110
2017-07-30T09:12:26.999Z,110
2017-07-30T09:13:07.446Z,110
2017-07-30T09:13:47.902Z,110
2017-07-30T09:14:28.353Z,110
2017-07-30T09:15:08.808Z,35
2017-07-30T09:15:49.262Z,110
2017-07-30T09:16:29.709Z,110
2017-07-30T09:17:10.169Z,110
2017-07-30T09:17:50.619Z,110
2017-07-30T09:18:31.073Z,110
2017-07-30T09:19:11.539Z,110
2017-07-30T09:19:51.993Z,110
2017-07-30T09:20:32.444Z,110
2017-07-30T09:21:12.896Z,110
2017-07-30T09:21:53.374Z,110
2017-07-30T09:22:33.871Z,115
2017-07-30T09:23:14.284Z,115
2017-07-30T09:23:54.728Z,120
2017-07-30T09:24:35.168Z,120
2017-07-30T09:25:15.616Z,120
2017-07-30T09:25:56.050Z,120
2017-07-30T09:26:36.508Z,115
2017-07-30T09:27:16.961Z,110
2017-07-30T09:27:57.408Z,115
2017-07-30T09:28:37.858Z,120
2017-07-30T09:29:18.309Z,120
2017-07-30T09:29:58.755Z,120
2017-07-30T09:30:39.212Z,115
2017-07-30T09:31:19.652Z,115
2017-07-30T09:32:00.101Z,120
2017-07-30T09:32:40.560Z,120
2017-07-30T09:33:21.025Z,120
2017-07-30T09:34:01.476Z,115
2017-07-30T09:34:41.946Z,120
2017-07-30T09:35:22.414Z,120
2017-07-30T09:36:02.875Z,125
2017-07-30T09:36:43.329Z,125
2017-07-30T09:37:23.920Z,125
2017-07-30T09:38:04.394Z,125
2017-07-30T09:38:45.047Z,130
2017-07-30T09:39:25.379Z,130
2017-07-30T09:40:05.777Z,100
2017-07-30T09:40:46.227Z,140
2017-07-30T09:41:26.675Z,130
2017-07-30T09:42:07.130Z,60
2017-07-30T09:42:47.573Z,55
2017-07-30T09:43:28.025Z,100
2017-07-30T09:44:08.481Z,90
2017-07-30T09:44:48.925Z,115
2017-07-30T09:45:29.400Z,130
2017-07-30T09:46:09.847Z,135
2017-07-30T09:46:50.299Z,115
2017-07-30T09:47:30.751Z,125
2017-07-30T09:48:11.223Z,130
2017-07-30T09:48:51.680Z,130
2017-07-30T09:49:32.139Z,130
2017-07-30T09:50:12.579Z,125
2017-07-30T09:50:53.039Z,125
2017-07-30T09:51:33.510Z,125
2017-07-30T09:52:13.950Z,125
2017-07-30T09:52:54.424Z,125
2017-07-30T09:53:34.881Z,125
2017-07-30T09:54:15.736Z,125
2017-07-30T09:54:56.023Z,125
2017-07-30T09:55:36.482Z,125
2017-07-30T09:56:16.950Z,125
2017-07-30T09:56:57.409Z,125
2017-07-30T09:57:37.879Z,125
2017-07-30T09:58:18.334Z,120
2017-07-30T10:00:46.450Z,115
2017-07-30T10:01:26.805Z,120
2017-07-30T10:02:07.262Z,120
2017-07-30T10:02:47.708Z,120
2017-07-30T10:03:28.139Z,120
2017-07-30T10:04:08.587Z,120
2017-07-30T10:04:49.080Z,70
2017-07-30T10:05:29.786Z,100
2017-07-30T10:06:10.613Z,90
2017-07-30T10:06:51.047Z,115
2017-07-30T10:07:31.593Z,115
2017-07-30T10:08:12.065Z,115
2017-07-30T10:08:52.511Z,110
2017-07-30T10:09:32.944Z,70
2017-07-30T10:10:13.394Z,115
2017-07-30T10:10:53.851Z,115
2017-07-30T10:11:34.289Z,115
2017-07-30T10:12:14.746Z,115
2017-07-30T10:12:55.244Z,115
2017-07-30T10:13:35.998Z,115
2017-07-30T10:14:16.448Z,115
2017-07-30T10:14:56.904Z,115
2017-07-30T10:15:37.347Z,115
2017-07-30T10:16:17.781Z,115
2017-07-30T10:16:58.237Z,115
2017-07-30T10:17:38.682Z,115
2017-07-30T10:18:19.139Z,115
2017-07-30T10:18:59.594Z,115
2017-07-30T10:19:40.065Z,115
2017-07-30T10:20:20.512Z,115
2017-07-30T10:21:01.083Z,115
2017-07-30T10:21:41.599Z,115
2017-07-30T10:22:21.990Z,115
2017-07-30T10:23:02.443Z,115
2017-07-30T10:23:42.894Z,95
2017-07-30T10:24:23.369Z,110
2017-07-30T10:25:03.809Z,100
2017-07-30T10:25:44.265Z,110
2017-07-30T10:26:24.722Z,110
2017-07-30T10:27:05.178Z,110